createdAt,value
2018-03-02T00:01:20.503Z,26.50
2018-03-02T00:03:48.797Z,27.90
2018-03-02T00:06:16.297Z,25.67
2018-03-02T00:08:43.814Z,28.23
2018-03-02T00:11:11.347Z,27.00
2018-03-02T00:13:39.654Z,26.15
2018-03-02T00:16:07.208Z,27.33
2018-03-02T00:18:34.715Z,29.15
2018-03-02T00:21:02.251Z,28.05
2018-03-02T00:23:29.753Z,27.50
2018-03-02T00:25:58.035Z,29.50
2018-03-02T00:28:26.343Z,27.30
2018-03-02T00:30:53.859Z,27.33
2018-03-02T00:33:21.393Z,29.52
2018-03-02T00:35:48.979Z,26.62
2018-03-02T00:38:16.515Z,29.60
2018-03-02T00:40:44.024Z,26.30
2018-03-02T00:43:12.290Z,28.80
2018-03-02T00:45:40.587Z,28.83
2018-03-02T00:48:08.146Z,28.00
2018-03-02T00:50:35.691Z,27.92
2018-03-02T00:53:03.968Z,27.05
2018-03-02T00:55:32.272Z,29.20
2018-03-02T00:57:59.781Z,30.23
2018-03-02T01:00:27.289Z,30.02
2018-03-02T01:02:54.820Z,27.77
2018-03-02T01:05:23.104Z,26.00
2018-03-02T01:07:51.394Z,29.48
2018-03-02T01:10:18.904Z,28.42
2018-03-02T01:12:46.432Z,28.65
2018-03-02T01:15:13.939Z,30.08
2018-03-02T01:17:41.445Z,29.40
2018-03-02T01:20:08.983Z,29.80
2018-03-02T01:22:37.252Z,30.58
2018-03-02T01:25:05.540Z,29.12
2018-03-02T01:27:33.804Z,26.45
2018-03-02T01:30:02.088Z,27.73
2018-03-02T01:32:30.359Z,27.92
2018-03-02T01:34:58.643Z,28.02
2018-03-02T01:37:26.912Z,26.73
2018-03-02T01:39:55.199Z,26.12
2018-03-02T01:42:23.463Z,27.17
2018-03-02T01:44:51.745Z,29.65
2018-03-02T01:47:20.008Z,29.10
2018-03-02T01:49:47.723Z,26.87
2018-03-02T01:52:15.224Z,29.48
2018-03-02T01:54:42.749Z,32.08
2018-03-02T01:57:10.248Z,28.10
2018-03-02T01:59:37.749Z,27.52
2018-03-02T02:02:05.280Z,28.50
2018-03-02T02:04:32.792Z,28.62
2018-03-02T02:07:00.319Z,29.65
2018-03-02T02:09:28.586Z,28.52
2018-03-02T02:11:56.927Z,32.45
2018-03-02T02:14:24.429Z,28.83
2018-03-02T02:16:52.691Z,29.20
2018-03-02T02:19:20.215Z,28.10
2018-03-02T02:21:47.728Z,28.08
2018-03-02T02:24:16.010Z,29.10
2018-03-02T02:26:43.514Z,27.52
2018-03-02T02:29:11.033Z,28.90
2018-03-02T02:31:38.542Z,29.63
2018-03-02T02:34:06.041Z,28.50
2018-03-02T02:36:34.330Z,26.12
2018-03-02T02:39:01.862Z,26.62
2018-03-02T02:41:30.153Z,28.23
2018-03-02T02:43:58.433Z,29.77
2018-03-02T02:46:26.733Z,29.85
2018-03-02T02:48:54.245Z,29.20
2018-03-02T02:51:21.746Z,28.08
2018-03-02T02:53:49.319Z,26.12
2018-03-02T02:56:17.580Z,28.00
2018-03-02T02:58:45.108Z,30.12
2018-03-02T03:01:12.602Z,27.65
2018-03-02T03:03:40.116Z,30.33
2018-03-02T03:06:07.607Z,27.25
2018-03-02T03:08:35.131Z,30.92
2018-03-02T03:11:02.648Z,27.75
2018-03-02T03:13:30.152Z,28.90
2018-03-02T03:15:57.669Z,29.02
2018-03-02T03:18:25.181Z,31.05
2018-03-02T03:20:52.723Z,29.00
2018-03-02T03:23:20.228Z,29.67
2018-03-02T03:25:47.760Z,28.30
2018-03-02T03:28:15.268Z,28.23
2018-03-02T03:30:42.776Z,29.40
2018-03-02T03:33:10.302Z,28.48
2018-03-02T03:35:37.815Z,27.55
2018-03-02T03:38:06.107Z,27.90
2018-03-02T03:40:34.377Z,30.00
2018-03-02T03:43:02.670Z,27.87
2018-03-02T03:45:30.172Z,28.27
2018-03-02T03:47:57.700Z,28.75
2018-03-02T03:50:25.212Z,30.23
2018-03-02T03:52:53.487Z,24.58
2018-03-02T03:55:21.013Z,28.58
2018-03-02T03:57:48.530Z,28.87
2018-03-02T04:00:16.820Z,27.25
2018-03-02T04:02:44.323Z,29.17
2018-03-02T04:05:11.852Z,28.67
2018-03-02T04:07:40.111Z,29.20
2018-03-02T04:10:07.623Z,26.90
2018-03-02T04:12:35.123Z,30.15
2018-03-02T04:15:03.399Z,29.55
2018-03-02T04:17:31.653Z,27.10
2018-03-02T04:19:59.499Z,29.35
2018-03-02T04:22:27.568Z,29.95
2018-03-02T04:24:55.067Z,29.48
2018-03-02T04:27:23.343Z,29.15
2018-03-02T04:29:51.601Z,27.13
2018-03-02T04:32:19.123Z,28.80
2018-03-02T04:34:46.610Z,30.55
2018-03-02T04:37:14.145Z,28.83
2018-03-02T04:39:41.647Z,26.37
2018-03-02T04:42:09.148Z,27.35
2018-03-02T04:44:36.658Z,29.65
2018-03-02T04:47:04.167Z,25.70
2018-03-02T04:49:32.468Z,29.73
2018-03-02T04:51:59.968Z,30.48
2018-03-02T04:54:28.246Z,27.80
2018-03-02T04:56:56.516Z,30.58
2018-03-02T04:59:24.057Z,28.83
2018-03-02T05:01:52.352Z,28.60
2018-03-02T05:04:19.869Z,31.48
2018-03-02T05:06:47.388Z,29.85
2018-03-02T05:09:15.661Z,27.55
2018-03-02T05:11:43.962Z,29.92
2018-03-02T05:14:11.465Z,28.55
2018-03-02T05:16:39.016Z,29.27
2018-03-02T05:19:06.531Z,26.40
2018-03-02T05:21:34.099Z,29.05
2018-03-02T05:24:02.352Z,28.92
2018-03-02T05:26:30.648Z,28.45
2018-03-02T05:28:58.176Z,28.45
2018-03-02T05:31:25.680Z,30.35
2018-03-02T05:33:53.205Z,30.98
2018-03-02T05:36:21.494Z,28.83
2018-03-02T05:38:49.020Z,30.37
2018-03-02T05:41:16.526Z,29.77
2018-03-02T05:43:44.061Z,28.02
2018-03-02T05:46:11.565Z,28.40
2018-03-02T05:48:39.861Z,27.62
2018-03-02T05:51:07.364Z,29.75
2018-03-02T05:53:35.638Z,30.27
2018-03-02T05:56:03.930Z,29.15
2018-03-02T05:58:32.209Z,29.63
2018-03-02T06:00:59.737Z,28.83
2018-03-02T06:03:27.240Z,29.40
2018-03-02T06:05:54.760Z,25.55
2018-03-02T06:08:22.251Z,29.67
2018-03-02T06:10:49.794Z,30.30
2018-03-02T06:13:18.075Z,28.40
2018-03-02T06:15:46.363Z,31.90
2018-03-02T06:18:14.638Z,30.98
2018-03-02T06:20:42.148Z,28.67
2018-03-02T06:23:09.693Z,23.77
2018-03-02T06:25:37.204Z,28.80
2018-03-02T06:28:05.505Z,26.95
2018-03-02T06:30:33.022Z,26.50
2018-03-02T06:33:00.633Z,30.15
2018-03-02T06:35:28.143Z,30.30
2018-03-02T06:37:55.693Z,30.77
2018-03-02T06:40:23.195Z,29.58
2018-03-02T06:42:51.490Z,30.27
2018-03-02T06:45:19.012Z,27.48
2018-03-02T06:47:46.515Z,29.37
2018-03-02T06:50:14.067Z,30.62
2018-03-02T06:52:41.570Z,29.98
2018-03-02T06:55:09.105Z,31.33
2018-03-02T06:57:36.621Z,28.67
2018-03-02T07:00:04.905Z,33.47
2018-03-02T07:02:33.177Z,32.67
2018-03-02T07:05:00.698Z,29.37
2018-03-02T07:07:28.199Z,31.02
2018-03-02T07:09:56.460Z,29.60
2018-03-02T07:12:24.187Z,29.40
2018-03-02T07:14:52.655Z,30.10
2018-03-02T07:17:20.230Z,29.63
2018-03-02T07:19:48.737Z,31.50
2018-03-02T07:22:16.275Z,29.83
2018-03-02T07:24:44.552Z,31.90
2018-03-02T07:27:12.071Z,31.02
2018-03-02T07:29:40.363Z,28.23
2018-03-02T07:32:07.869Z,30.42
2018-03-02T07:34:35.406Z,30.20
2018-03-02T07:37:02.912Z,30.77
2018-03-02T07:39:31.209Z,29.37
2018-03-02T07:41:58.717Z,30.55
2018-03-02T07:44:26.256Z,32.42
2018-03-02T07:46:53.779Z,24.98
2018-03-02T07:49:22.071Z,32.30
2018-03-02T07:51:49.581Z,30.60
2018-03-02T07:54:17.102Z,30.40
2018-03-02T07:56:44.612Z,31.48
2018-03-02T07:59:12.113Z,26.58
2018-03-02T08:01:39.632Z,28.35
2018-03-02T08:04:07.143Z,31.15
2018-03-02T08:06:34.678Z,30.88
2018-03-02T08:09:02.941Z,29.40
2018-03-02T08:11:31.241Z,28.55
2018-03-02T08:13:58.754Z,30.02
2018-03-02T08:16:26.298Z,29.30
2018-03-02T08:18:53.859Z,29.10
2018-03-02T08:21:21.372Z,28.23
2018-03-02T08:23:48.906Z,28.60
2018-03-02T08:26:16.421Z,30.65
2018-03-02T08:28:43.957Z,29.37
2018-03-02T08:31:11.461Z,30.10
2018-03-02T08:33:38.992Z,24.35
2018-03-02T08:36:06.577Z,27.17
2018-03-02T08:38:34.104Z,22.50
2018-03-02T08:41:01.620Z,31.23
2018-03-02T08:43:29.354Z,27.75
2018-03-02T08:45:56.888Z,27.87
2018-03-02T08:48:24.401Z,30.08
2018-03-02T08:50:51.939Z,28.95
2018-03-02T08:53:19.456Z,29.17
2018-03-02T08:55:47.760Z,29.80
2018-03-02T08:58:15.326Z,30.25
2018-03-02T09:00:42.892Z,27.80
2018-03-02T09:03:10.408Z,30.85
2018-03-02T09:05:38.704Z,27.75
2018-03-02T09:08:06.216Z,28.52
2018-03-02T09:10:33.722Z,28.60
2018-03-02T09:13:01.257Z,28.42
2018-03-02T09:15:29.539Z,28.52
2018-03-02T09:17:57.829Z,28.15
2018-03-02T09:20:25.335Z,30.62
2018-03-02T09:22:52.867Z,29.10
2018-03-02T09:25:20.373Z,29.10
2018-03-02T09:27:47.928Z,30.30
2018-03-02T09:30:15.446Z,30.10
2018-03-02T09:32:42.952Z,26.83
2018-03-02T09:35:10.475Z,32.35
2018-03-02T09:37:37.982Z,26.73
2018-03-02T09:40:06.317Z,27.25
2018-03-02T09:42:33.836Z,28.80
2018-03-02T09:45:02.144Z,28.40
2018-03-02T09:47:29.658Z,19.65
2018-03-02T09:49:57.956Z,29.50
2018-03-02T09:52:25.483Z,30.33
2018-03-02T09:54:52.988Z,30.08
2018-03-02T09:57:20.516Z,26.45
2018-03-02T09:59:48.795Z,24.60
2018-03-02T10:02:17.092Z,29.90
2018-03-02T10:04:45.396Z,25.23
2018-03-02T10:07:12.903Z,27.40
2018-03-02T10:09:40.416Z,28.33
2018-03-02T10:12:07.938Z,29.77
2018-03-02T10:14:36.214Z,27.70
2018-03-02T10:17:04.520Z,28.33
2018-03-02T10:19:32.028Z,27.05
2018-03-02T10:21:59.549Z,30.27
2018-03-02T10:24:27.078Z,29.00
2018-03-02T10:26:55.347Z,29.52
2018-03-02T10:29:22.889Z,28.05
2018-03-02T10:31:50.413Z,29.65
2018-03-02T10:34:18.063Z,29.00
2018-03-02T10:36:45.565Z,27.92
2018-03-02T10:39:13.874Z,27.90
2018-03-02T10:41:42.144Z,27.65
2018-03-02T10:44:10.425Z,29.95
2018-03-02T10:46:38.392Z,30.12
2018-03-02T10:49:06.661Z,29.30
2018-03-02T10:51:34.956Z,26.67
2018-03-02T10:54:03.247Z,30.70
2018-03-02T10:56:30.771Z,29.20
2018-03-02T10:58:58.292Z,27.65
2018-03-02T11:01:25.826Z,27.62
2018-03-02T11:03:58.952Z,27.92
2018-03-02T11:06:26.488Z,25.50
2018-03-02T11:08:53.988Z,25.80
2018-03-02T11:11:21.508Z,27.85
2018-03-02T11:13:49.024Z,30.30
2018-03-02T11:16:17.326Z,30.10
2018-03-02T11:18:44.848Z,29.55
2018-03-02T11:21:12.352Z,29.40
2018-03-02T11:23:39.886Z,29.20
2018-03-02T11:26:08.168Z,24.35
2018-03-02T11:28:36.474Z,30.85
2018-03-02T11:31:03.996Z,31.23
2018-03-02T11:33:32.281Z,28.73
2018-03-02T11:36:00.575Z,30.27
2018-03-02T11:38:28.112Z,30.80
2018-03-02T11:40:56.392Z,30.05
2018-03-02T11:43:24.685Z,30.58
2018-03-02T11:45:52.206Z,30.35
2018-03-02T11:48:19.704Z,30.15
2018-03-02T11:50:47.988Z,28.52
2018-03-02T11:53:15.500Z,29.65
2018-03-02T11:55:43.037Z,33.15
2018-03-02T11:58:10.540Z,29.92
2018-03-02T12:00:38.832Z,30.62
2018-03-02T12:03:07.099Z,31.67
2018-03-02T12:05:35.408Z,30.60
2018-03-02T12:08:02.944Z,28.50
2018-03-02T12:10:31.209Z,29.08
2018-03-02T12:12:58.732Z,29.60
2018-03-02T12:15:26.256Z,29.17
2018-03-02T12:17:53.772Z,30.52
2018-03-02T12:20:21.270Z,30.00
2018-03-02T12:22:48.847Z,33.05
2018-03-02T12:25:16.372Z,31.87
2018-03-02T12:27:43.889Z,33.38
2018-03-02T12:30:11.395Z,30.83
2018-03-02T12:32:39.666Z,33.33
2018-03-02T12:35:07.960Z,29.35
2018-03-02T12:37:36.228Z,29.45
2018-03-02T12:40:04.538Z,31.98
2018-03-02T12:42:32.805Z,31.50
2018-03-02T12:45:00.353Z,29.67
2018-03-02T12:47:28.624Z,29.90
2018-03-02T12:49:56.937Z,30.77
2018-03-02T12:52:24.412Z,28.95
2018-03-02T12:54:51.933Z,34.50
2018-03-02T12:57:19.437Z,30.60
2018-03-02T12:59:46.932Z,32.08
2018-03-02T13:02:15.248Z,31.33
2018-03-02T13:04:42.750Z,32.03
2018-03-02T13:07:10.268Z,30.58
2018-03-02T13:09:37.764Z,30.85
2018-03-02T13:12:05.295Z,29.35
2018-03-02T13:14:32.797Z,30.83
2018-03-02T13:17:00.333Z,30.17
2018-03-02T13:19:27.836Z,30.85
2018-03-02T13:21:56.142Z,31.70
2018-03-02T13:24:23.672Z,29.40
2018-03-02T13:27:03.883Z,29.87
2018-03-02T13:29:31.408Z,31.05
2018-03-02T13:31:58.925Z,29.35
2018-03-02T13:34:38.280Z,31.30
2018-03-02T13:37:06.555Z,30.70
2018-03-02T13:39:46.634Z,31.08
2018-03-02T13:42:14.153Z,32.88
2018-03-02T13:44:41.685Z,30.62
2018-03-02T13:47:09.197Z,31.45
2018-03-02T13:49:49.400Z,31.25
2018-03-02T13:52:16.906Z,30.95
2018-03-02T13:54:45.245Z,31.48
2018-03-02T13:57:24.652Z,31.62
2018-03-02T13:59:52.179Z,31.42
2018-03-02T14:02:32.217Z,32.15
2018-03-02T14:05:02.555Z,33.50
2018-03-02T14:07:30.063Z,31.45
2018-03-02T14:09:57.579Z,29.87
2018-03-02T14:12:25.860Z,31.42
2018-03-02T14:14:54.132Z,33.15
2018-03-02T14:17:22.417Z,30.92
2018-03-02T14:19:50.730Z,30.88
2018-03-02T14:22:18.249Z,33.05
2018-03-02T14:24:46.516Z,35.03
2018-03-02T14:27:14.032Z,32.90
2018-03-02T14:29:42.385Z,32.50
2018-03-02T14:32:09.929Z,32.53
2018-03-02T14:34:37.457Z,30.05
2018-03-02T14:37:04.964Z,33.40
2018-03-02T14:39:32.490Z,32.47
2018-03-02T14:42:00.010Z,33.08
2018-03-02T14:44:27.532Z,33.08
2018-03-02T14:46:55.799Z,30.30
2018-03-02T14:49:24.096Z,32.70
2018-03-02T14:51:51.593Z,32.88
2018-03-02T14:54:19.112Z,34.15
2018-03-02T14:56:46.644Z,31.95
2018-03-02T14:59:14.133Z,32.50
2018-03-02T15:01:42.416Z,33.15
2018-03-02T15:04:09.917Z,32.28
2018-03-02T15:06:37.439Z,34.83
2018-03-02T15:09:04.966Z,32.10
2018-03-02T15:11:33.260Z,31.80
2018-03-02T15:14:01.533Z,33.22
2018-03-02T15:16:29.798Z,32.80
2018-03-02T15:18:57.324Z,33.58
2018-03-02T15:21:24.824Z,32.60
2018-03-02T15:23:53.108Z,34.58
2018-03-02T15:26:21.377Z,33.15
2018-03-02T15:28:49.661Z,32.67
2018-03-02T15:31:17.936Z,33.33
2018-03-02T15:33:46.234Z,33.00
2018-03-02T15:36:13.736Z,34.08
2018-03-02T15:38:41.252Z,33.17
2018-03-02T15:41:08.753Z,32.00
2018-03-02T15:43:36.264Z,34.17
2018-03-02T15:46:03.804Z,34.35
2018-03-02T15:48:31.354Z,35.03
2018-03-02T15:50:58.881Z,35.88
2018-03-02T15:53:26.379Z,34.25
2018-03-02T15:55:53.971Z,35.67
2018-03-02T15:58:21.488Z,34.60
2018-03-02T16:00:49.009Z,33.85
2018-03-02T16:03:16.504Z,35.65
2018-03-02T16:05:44.023Z,32.67
2018-03-02T16:08:11.521Z,34.15
2018-03-02T16:10:39.041Z,34.08
2018-03-02T16:13:06.535Z,34.35
2018-03-02T16:15:34.046Z,32.55
2018-03-02T16:18:01.572Z,35.60
2018-03-02T16:20:29.073Z,32.15
2018-03-02T16:22:56.595Z,32.55
2018-03-02T16:25:24.101Z,33.90
2018-03-02T16:27:51.624Z,32.30
2018-03-02T16:30:19.919Z,34.85
2018-03-02T16:32:47.431Z,33.83
2018-03-02T16:35:14.957Z,34.35
2018-03-02T16:37:42.468Z,31.80
2018-03-02T16:40:09.988Z,32.88
2018-03-02T16:42:37.494Z,34.88
2018-03-02T16:45:05.820Z,32.03
2018-03-02T16:47:33.324Z,30.83
2018-03-02T16:50:00.835Z,31.80
2018-03-02T16:52:28.335Z,30.45
2018-03-02T16:54:55.881Z,32.60
2018-03-02T16:57:23.392Z,31.87
2018-03-02T16:59:50.897Z,34.92
2018-03-02T17:02:18.426Z,32.63
2018-03-02T17:04:45.928Z,31.70
2018-03-02T17:07:13.465Z,31.08
2018-03-02T17:09:40.969Z,34.30
2018-03-02T17:12:09.272Z,32.05
2018-03-02T17:14:36.782Z,32.35
2018-03-02T17:17:04.324Z,33.53
2018-03-02T17:19:31.839Z,33.13
2018-03-02T17:22:00.115Z,32.90
2018-03-02T17:24:28.409Z,31.20
2018-03-02T17:26:55.925Z,33.53
2018-03-02T17:29:23.453Z,31.60
2018-03-02T17:31:50.972Z,31.20
2018-03-02T17:34:19.264Z,32.35
2018-03-02T17:36:46.794Z,31.25
2018-03-02T17:39:14.339Z,34.60
2018-03-02T17:41:41.857Z,34.33
2018-03-02T17:44:09.368Z,35.88
2018-03-02T17:46:36.900Z,34.00
2018-03-02T17:49:04.415Z,37.03
2018-03-02T17:51:31.936Z,35.60
2018-03-02T17:53:59.463Z,34.25
2018-03-02T17:56:26.996Z,34.45
2018-03-02T17:58:54.509Z,36.20
2018-03-02T18:01:22.040Z,35.97
2018-03-02T18:03:49.540Z,39.42
2018-03-02T18:06:17.074Z,38.47
2018-03-02T18:08:44.592Z,37.50
2018-03-02T18:11:12.891Z,36.30
2018-03-02T18:13:40.392Z,36.60
2018-03-02T18:16:07.906Z,39.67
2018-03-02T18:18:35.441Z,37.17
2018-03-02T18:21:03.718Z,39.30
2018-03-02T18:23:32.023Z,40.10
2018-03-02T18:25:59.540Z,41.30
2018-03-02T18:28:27.060Z,39.60
2018-03-02T18:30:54.560Z,40.15
2018-03-02T18:33:22.857Z,41.92
2018-03-02T18:35:50.371Z,43.15
2018-03-02T18:38:17.905Z,41.40
2018-03-02T18:40:45.445Z,40.12
2018-03-02T18:43:12.972Z,41.65
2018-03-02T18:45:40.515Z,41.05
2018-03-02T18:48:08.055Z,39.90
2018-03-02T18:50:35.576Z,41.13
2018-03-02T18:53:03.839Z,42.03
2018-03-02T18:55:32.158Z,41.58
2018-03-02T18:57:59.666Z,37.90
2018-03-02T19:00:27.173Z,39.13
2018-03-02T19:02:54.699Z,41.63
2018-03-02T19:05:22.968Z,41.75
2018-03-02T19:07:51.277Z,38.75
2018-03-02T19:10:18.800Z,35.75
2018-03-02T19:12:46.337Z,39.45
2018-03-02T19:15:13.852Z,39.63
2018-03-02T19:17:41.408Z,38.45
2018-03-02T19:20:09.702Z,39.33
2018-03-02T19:22:37.237Z,40.08
2018-03-02T19:25:05.513Z,39.03
2018-03-02T19:27:33.792Z,40.65
2018-03-02T19:30:02.109Z,38.33
2018-03-02T19:32:29.627Z,38.28
2018-03-02T19:34:57.169Z,41.40
2018-03-02T19:37:24.681Z,38.15
2018-03-02T19:39:52.216Z,40.63
2018-03-02T19:42:19.734Z,41.03
2018-03-02T19:44:47.270Z,39.72
2018-03-02T19:47:14.784Z,41.50
2018-03-02T19:49:43.056Z,43.03
2018-03-02T19:52:11.356Z,41.70
2018-03-02T19:54:38.867Z,43.83
2018-03-02T19:57:06.410Z,45.88
2018-03-02T19:59:33.925Z,43.47
2018-03-02T20:02:01.488Z,48.38
2018-03-02T20:04:29.757Z,46.67
2018-03-02T20:06:58.103Z,47.00
2018-03-02T20:09:25.574Z,45.80
2018-03-02T20:11:53.118Z,46.92
2018-03-02T20:14:20.664Z,51.20
2018-03-02T20:16:48.175Z,48.83
2018-03-02T20:19:15.727Z,49.65
2018-03-02T20:21:43.273Z,49.13
2018-03-02T20:24:10.800Z,50.60
2018-03-02T20:26:38.307Z,50.70
2018-03-02T20:29:05.864Z,49.45
2018-03-02T20:31:33.373Z,49.35
2018-03-02T20:34:01.803Z,50.17
2018-03-02T20:36:30.088Z,51.45
2018-03-02T20:38:58.374Z,51.58
2018-03-02T20:41:26.681Z,51.83
2018-03-02T20:43:54.196Z,51.00
2018-03-02T20:46:21.729Z,51.92
2018-03-02T20:48:49.905Z,51.65
2018-03-02T20:51:17.444Z,51.25
2018-03-02T20:53:44.967Z,53.95
2018-03-02T20:56:13.517Z,49.53
2018-03-02T20:58:41.049Z,48.90
2018-03-02T21:01:08.588Z,51.78
2018-03-02T21:03:36.133Z,46.78
2018-03-02T21:06:04.403Z,51.30
2018-03-02T21:08:32.706Z,50.05
2018-03-02T21:11:00.221Z,51.53
2018-03-02T21:13:27.753Z,50.75
2018-03-02T21:15:55.256Z,51.55
2018-03-02T21:18:23.565Z,54.50
2018-03-02T21:20:51.089Z,53.47
2018-03-02T21:23:18.600Z,53.10
2018-03-02T21:25:46.136Z,53.53
2018-03-02T21:28:13.667Z,57.72
2018-03-02T21:30:41.193Z,54.42
2018-03-02T21:33:08.710Z,54.80
2018-03-02T21:35:36.235Z,55.65
2018-03-02T21:38:03.748Z,55.60
2018-03-02T21:40:31.280Z,56.40
2018-03-02T21:42:59.548Z,56.15
2018-03-02T21:45:27.853Z,55.45
2018-03-02T21:47:55.363Z,55.97
2018-03-02T21:50:22.920Z,53.65
2018-03-02T21:52:50.472Z,57.95
2018-03-02T21:55:17.982Z,57.38
2018-03-02T21:57:45.521Z,55.60
2018-03-02T22:00:13.037Z,56.40
2018-03-02T22:02:40.568Z,57.88
2018-03-02T22:05:08.072Z,55.72
2018-03-02T22:07:35.596Z,56.50
2018-03-02T22:10:03.108Z,55.08
2018-03-02T22:12:30.626Z,57.30
2018-03-02T22:14:58.164Z,56.50
2018-03-02T22:17:25.674Z,57.62
2018-03-02T22:19:53.200Z,60.17
2018-03-02T22:22:20.720Z,55.88
2018-03-02T22:24:49.008Z,60.95
2018-03-02T22:27:17.275Z,57.88
2018-03-02T22:29:45.573Z,57.22
2018-03-02T22:32:13.085Z,59.25
2018-03-02T22:34:40.640Z,55.22
2018-03-02T22:37:08.176Z,59.92
2018-03-02T22:39:35.727Z,58.03
2018-03-02T22:42:03.999Z,56.42
2018-03-02T22:44:31.525Z,58.65
2018-03-02T22:46:59.057Z,56.80
2018-03-02T22:49:26.556Z,59.85
2018-03-02T22:51:54.913Z,58.20
2018-03-02T22:54:22.441Z,57.67
2018-03-02T22:56:49.969Z,53.90
2018-03-02T22:59:17.485Z,57.05
2018-03-02T23:01:44.992Z,56.63
2018-03-02T23:04:12.527Z,59.08
2018-03-02T23:06:40.822Z,57.15
2018-03-02T23:09:08.360Z,60.08
2018-03-02T23:11:36.642Z,63.72
2018-03-02T23:14:04.935Z,61.58
2018-03-02T23:16:32.449Z,60.45
2018-03-02T23:18:59.979Z,63.15
2018-03-02T23:21:27.485Z,58.53
2018-03-02T23:23:55.016Z,62.78
2018-03-02T23:26:22.525Z,58.85
2018-03-02T23:28:50.808Z,60.67
2018-03-02T23:31:19.102Z,59.00
2018-03-02T23:33:46.608Z,64.40
2018-03-02T23:36:14.130Z,55.38
2018-03-02T23:38:41.637Z,60.58
2018-03-02T23:41:09.167Z,57.72
2018-03-02T23:43:36.681Z,59.45
2018-03-02T23:46:04.972Z,59.97
2018-03-02T23:48:32.476Z,58.67
2018-03-02T23:51:00.002Z,59.53
2018-03-02T23:53:27.529Z,58.22
2018-03-02T23:55:55.801Z,60.60
2018-03-02T23:58:24.101Z,60.47
